createdAt,value
2019-02-20T00:01:45.194Z,5.70
2019-02-20T00:04:12.466Z,5.70
2019-02-20T00:06:39.906Z,5.70
2019-02-20T00:09:07.182Z,5.60
2019-02-20T00:11:34.565Z,5.60
2019-02-20T00:14:01.954Z,5.60
2019-02-20T00:16:29.331Z,5.70
2019-02-20T00:18:56.691Z,5.60
2019-02-20T00:21:23.937Z,5.60
2019-02-20T00:23:51.277Z,5.60
2019-02-20T00:26:18.591Z,5.60
2019-02-20T00:28:45.966Z,5.50
2019-02-20T00:31:13.232Z,5.50
2019-02-20T00:33:40.470Z,5.60
2019-02-20T00:36:07.739Z,5.60
2019-02-20T00:38:34.983Z,5.60
2019-02-20T00:41:02.266Z,5.50
2019-02-20T00:43:29.522Z,5.50
2019-02-20T00:46:04.731Z,5.50
2019-02-20T00:48:43.249Z,5.40
2019-02-20T00:51:17.266Z,5.40
2019-02-20T00:53:49.577Z,5.30
2019-02-20T00:56:16.839Z,5.30
2019-02-20T00:58:44.219Z,5.20
2019-02-20T01:01:11.450Z,5.10
2019-02-20T01:03:38.834Z,5.00
2019-02-20T01:06:06.131Z,5.00
2019-02-20T01:08:33.414Z,4.80
2019-02-20T01:11:00.667Z,4.70
2019-02-20T01:13:28.014Z,4.70
2019-02-20T01:15:55.419Z,4.60
2019-02-20T01:18:22.905Z,4.60
2019-02-20T01:20:50.603Z,4.50
2019-02-20T01:23:17.877Z,4.50
2019-02-20T01:25:45.274Z,4.50
2019-02-20T01:28:12.582Z,4.50
2019-02-20T01:30:39.947Z,4.50
2019-02-20T01:33:07.352Z,4.60
2019-02-20T01:35:34.646Z,4.50
2019-02-20T01:38:02.050Z,4.40
2019-02-20T01:40:29.270Z,4.30
2019-02-20T01:42:56.685Z,4.20
2019-02-20T01:45:23.941Z,4.10
2019-02-20T01:47:51.230Z,4.10
2019-02-20T01:50:18.529Z,4.00
2019-02-20T01:52:45.907Z,3.90
2019-02-20T01:55:13.353Z,3.80
2019-02-20T01:57:40.618Z,3.80
2019-02-20T02:00:08.611Z,3.80
2019-02-20T02:02:35.918Z,3.70
2019-02-20T02:05:03.636Z,3.70
2019-02-20T02:07:30.927Z,3.80
2019-02-20T02:09:58.170Z,3.80
2019-02-20T02:12:25.426Z,3.70
2019-02-20T02:14:52.677Z,3.60
2019-02-20T02:17:20.061Z,3.70
2019-02-20T02:19:47.350Z,3.70
2019-02-20T02:22:14.619Z,3.60
2019-02-20T02:24:41.894Z,3.50
2019-02-20T02:27:09.594Z,3.40
2019-02-20T02:29:37.028Z,3.40
2019-02-20T02:32:04.329Z,3.30
2019-02-20T02:34:31.731Z,3.30
2019-02-20T02:36:59.133Z,3.10
2019-02-20T02:39:26.592Z,3.10
2019-02-20T02:41:54.034Z,3.20
2019-02-20T02:44:21.421Z,3.20
2019-02-20T02:46:48.882Z,3.20
2019-02-20T02:49:16.263Z,3.20
2019-02-20T02:51:43.500Z,3.20
2019-02-20T02:54:10.761Z,3.10
2019-02-20T02:56:38.315Z,3.00
2019-02-20T02:59:05.589Z,3.00
2019-02-20T03:01:33.066Z,3.00
2019-02-20T03:04:00.519Z,2.90
2019-02-20T03:06:27.804Z,2.80
2019-02-20T03:08:55.205Z,2.80
2019-02-20T03:11:22.868Z,2.70
2019-02-20T03:13:50.408Z,2.80
2019-02-20T03:16:17.671Z,2.80
2019-02-20T03:18:44.919Z,2.80
2019-02-20T03:21:12.298Z,2.90
2019-02-20T03:23:40.710Z,2.90
2019-02-20T03:26:08.514Z,2.90
2019-02-20T03:28:35.934Z,2.90
2019-02-20T03:31:03.302Z,2.90
2019-02-20T03:33:30.705Z,2.80
2019-02-20T03:35:58.137Z,2.80
2019-02-20T03:38:30.326Z,2.60
2019-02-20T03:40:54.941Z,2.70
2019-02-20T03:43:22.365Z,2.70
2019-02-20T03:45:49.866Z,2.70
2019-02-20T03:48:17.274Z,2.70
2019-02-20T03:50:44.861Z,2.70
2019-02-20T03:53:12.171Z,2.90
2019-02-20T03:55:39.644Z,2.90
2019-02-20T03:58:06.886Z,2.90
2019-02-20T04:00:34.242Z,2.80
2019-02-20T04:03:01.533Z,2.70
2019-02-20T04:05:28.930Z,2.70
2019-02-20T04:07:56.181Z,2.60
2019-02-20T04:10:23.431Z,2.50
2019-02-20T04:12:50.775Z,2.50
2019-02-20T04:15:18.134Z,2.50
2019-02-20T04:17:45.418Z,2.50
2019-02-20T04:20:12.807Z,2.40
2019-02-20T04:22:40.207Z,2.40
2019-02-20T04:25:07.503Z,2.40
2019-02-20T04:27:34.772Z,2.30
2019-02-20T04:30:02.158Z,2.30
2019-02-20T04:32:29.728Z,2.20
2019-02-20T04:34:57.174Z,2.20
2019-02-20T04:37:24.396Z,2.10
2019-02-20T04:39:51.814Z,2.10
2019-02-20T04:42:19.173Z,2.10
2019-02-20T04:44:46.458Z,2.10
2019-02-20T04:47:13.781Z,1.90
2019-02-20T04:49:41.237Z,2.00
2019-02-20T04:52:08.478Z,2.00
2019-02-20T04:54:35.854Z,2.10
2019-02-20T04:57:03.233Z,2.00
2019-02-20T04:59:30.501Z,2.00
2019-02-20T05:01:57.750Z,2.10
2019-02-20T05:04:26.350Z,1.90
2019-02-20T05:06:53.703Z,1.80
2019-02-20T05:09:21.110Z,1.70
2019-02-20T05:11:48.550Z,1.80
2019-02-20T05:14:15.895Z,1.90
2019-02-20T05:16:43.188Z,2.00
2019-02-20T05:19:10.461Z,2.00
2019-02-20T05:21:37.887Z,2.00
2019-02-20T05:24:05.371Z,2.10
2019-02-20T05:26:32.721Z,2.10
2019-02-20T05:29:00.018Z,2.10
2019-02-20T05:31:27.495Z,2.10
2019-02-20T05:33:54.950Z,2.10
2019-02-20T05:36:22.195Z,2.10
2019-02-20T05:38:49.523Z,1.90
2019-02-20T05:41:16.794Z,1.80
2019-02-20T05:43:44.329Z,1.80
2019-02-20T05:46:11.599Z,1.80
2019-02-20T05:48:39.042Z,1.80
2019-02-20T05:51:06.522Z,1.90
2019-02-20T05:53:33.788Z,1.90
2019-02-20T05:56:01.284Z,1.90
2019-02-20T05:58:28.787Z,1.90
2019-02-20T06:00:56.144Z,1.90
2019-02-20T06:03:23.614Z,1.90
2019-02-20T06:05:50.860Z,1.90
2019-02-20T06:08:18.114Z,1.80
2019-02-20T06:10:45.486Z,1.80
2019-02-20T06:13:12.766Z,1.80
2019-02-20T06:15:40.138Z,1.90
2019-02-20T06:18:07.492Z,1.90
2019-02-20T06:20:34.902Z,2.00
2019-02-20T06:23:02.150Z,2.10
2019-02-20T06:25:29.542Z,2.10
2019-02-20T06:27:56.849Z,2.20
2019-02-20T06:30:24.290Z,2.30
2019-02-20T06:32:51.752Z,2.30
2019-02-20T06:35:18.982Z,2.30
2019-02-20T06:37:46.534Z,2.20
2019-02-20T06:40:13.822Z,2.20
2019-02-20T06:42:41.255Z,2.30
2019-02-20T06:45:13.942Z,2.30
2019-02-20T06:47:41.448Z,2.30
2019-02-20T06:50:09.698Z,2.40
2019-02-20T06:52:36.987Z,2.40
2019-02-20T06:55:04.663Z,2.60
2019-02-20T06:57:32.015Z,2.80
2019-02-20T06:59:59.267Z,2.90
2019-02-20T07:02:26.730Z,2.70
2019-02-20T07:05:31.659Z,2.80
2019-02-20T07:08:34.978Z,2.60
2019-02-20T07:11:40.685Z,2.70
2019-02-20T07:14:27.455Z,3.10
2019-02-20T07:17:41.962Z,3.30
2019-02-20T07:20:44.811Z,3.50
2019-02-20T07:23:24.158Z,3.70
2019-02-20T07:26:21.201Z,3.80
2019-02-20T07:29:44.973Z,3.90
2019-02-20T07:32:16.548Z,4.00
2019-02-20T07:34:43.842Z,4.40
2019-02-20T07:37:11.126Z,4.80
2019-02-20T07:39:38.534Z,5.00
2019-02-20T07:42:05.816Z,5.00
2019-02-20T07:44:33.071Z,5.30
2019-02-20T07:47:00.470Z,5.40
2019-02-20T07:49:27.974Z,5.60
2019-02-20T07:51:56.304Z,5.80
2019-02-20T07:54:23.627Z,5.90
2019-02-20T07:56:50.934Z,5.90
2019-02-20T07:59:18.294Z,5.90
2019-02-20T08:01:45.542Z,5.90
2019-02-20T08:04:13.031Z,5.80
2019-02-20T08:06:40.325Z,5.60
2019-02-20T08:09:07.690Z,5.60
2019-02-20T08:11:35.016Z,5.60
2019-02-20T08:14:02.413Z,5.70
2019-02-20T08:16:29.707Z,6.00
2019-02-20T08:18:56.958Z,6.30
2019-02-20T08:21:24.200Z,6.60
2019-02-20T08:23:51.436Z,7.00
2019-02-20T08:26:18.804Z,7.30
2019-02-20T08:28:46.050Z,7.50
2019-02-20T08:31:13.526Z,7.80
2019-02-20T08:33:40.882Z,7.70
2019-02-20T08:36:08.340Z,7.70
2019-02-20T08:38:35.781Z,7.90
2019-02-20T08:41:03.061Z,8.30
2019-02-20T08:43:30.398Z,8.50
2019-02-20T08:45:57.786Z,8.40
2019-02-20T08:48:26.498Z,8.20
2019-02-20T08:50:54.070Z,8.20
2019-02-20T08:53:21.470Z,8.30
2019-02-20T08:55:48.695Z,8.30
2019-02-20T08:58:16.114Z,8.40
2019-02-20T09:00:43.703Z,8.30
2019-02-20T09:03:11.063Z,8.40
2019-02-20T09:05:38.453Z,8.40
2019-02-20T09:08:05.847Z,8.40
2019-02-20T09:10:33.126Z,8.60
2019-02-20T09:13:00.401Z,8.60
2019-02-20T09:15:27.750Z,8.50
2019-02-20T09:17:55.058Z,8.80
2019-02-20T09:20:22.318Z,9.10
2019-02-20T09:22:49.742Z,9.50
2019-02-20T09:25:19.845Z,9.80
2019-02-20T09:27:46.236Z,10.20
2019-02-20T09:30:13.692Z,10.00
2019-02-20T09:32:40.982Z,10.10
2019-02-20T09:35:08.347Z,10.20
2019-02-20T09:37:35.642Z,10.60
2019-02-20T09:40:03.765Z,10.40
2019-02-20T09:42:31.222Z,10.40
2019-02-20T09:44:58.666Z,10.40
2019-02-20T09:47:26.171Z,10.00
2019-02-20T09:49:53.494Z,10.10
2019-02-20T09:52:20.862Z,10.50
2019-02-20T09:54:49.166Z,10.70
2019-02-20T09:57:16.418Z,10.70
2019-02-20T09:59:43.925Z,10.70
2019-02-20T10:02:11.163Z,10.70
2019-02-20T10:04:38.493Z,10.90
2019-02-20T10:07:05.848Z,10.70
2019-02-20T10:09:33.333Z,10.50
2019-02-20T10:12:00.622Z,10.50
2019-02-20T10:14:27.879Z,10.40
2019-02-20T10:16:55.205Z,10.50
2019-02-20T10:19:22.566Z,10.70
2019-02-20T10:21:49.844Z,10.90
2019-02-20T10:24:17.223Z,11.10
2019-02-20T10:26:44.894Z,11.20
2019-02-20T10:29:12.263Z,11.10
2019-02-20T10:31:39.743Z,10.90
2019-02-20T10:34:07.042Z,10.80
2019-02-20T10:36:34.287Z,10.90
2019-02-20T10:39:01.791Z,11.10
2019-02-20T10:41:29.422Z,11.20
2019-02-20T10:43:56.770Z,10.90
2019-02-20T10:46:24.055Z,10.80
2019-02-20T10:48:51.389Z,10.90
2019-02-20T10:51:18.845Z,11.00
2019-02-20T10:53:46.150Z,11.30
2019-02-20T10:56:14.425Z,11.40
2019-02-20T10:58:41.740Z,11.40
2019-02-20T11:01:08.962Z,11.30
2019-02-20T11:03:36.300Z,11.10
2019-02-20T11:06:03.518Z,11.30
2019-02-20T11:08:30.782Z,11.40
2019-02-20T11:10:58.070Z,11.70
2019-02-20T11:13:25.400Z,12.00
2019-02-20T11:15:52.613Z,12.20
2019-02-20T11:18:19.874Z,12.60
2019-02-20T11:20:48.585Z,12.60
2019-02-20T11:23:16.093Z,12.20
2019-02-20T11:25:43.346Z,11.90
2019-02-20T11:28:10.717Z,11.50
2019-02-20T11:30:38.323Z,11.60
2019-02-20T11:33:05.667Z,11.70
2019-02-20T11:35:32.903Z,11.60
2019-02-20T11:38:00.205Z,11.30
2019-02-20T11:40:27.730Z,11.60
2019-02-20T11:42:55.012Z,11.50
2019-02-20T11:45:22.405Z,11.30
2019-02-20T11:47:49.757Z,11.00
2019-02-20T11:50:17.019Z,10.80
2019-02-20T11:52:44.287Z,10.60
2019-02-20T11:55:11.651Z,10.60
2019-02-20T11:57:39.519Z,10.50
2019-02-20T12:00:08.378Z,10.60
2019-02-20T12:02:37.572Z,10.40
2019-02-20T12:05:05.149Z,10.10
2019-02-20T12:07:32.548Z,9.70
2019-02-20T12:09:59.982Z,9.50
2019-02-20T12:12:27.327Z,9.50
2019-02-20T12:14:54.658Z,9.70
2019-02-20T12:17:21.931Z,9.70
2019-02-20T12:19:49.175Z,10.00
2019-02-20T12:22:16.415Z,10.10
2019-02-20T12:24:43.766Z,10.20
2019-02-20T12:27:11.122Z,10.20
2019-02-20T12:29:38.450Z,10.30
2019-02-20T12:32:05.798Z,10.40
2019-02-20T12:34:33.179Z,10.30
2019-02-20T12:37:00.541Z,9.90
2019-02-20T12:39:27.889Z,9.80
2019-02-20T12:41:55.211Z,9.80
2019-02-20T12:44:22.518Z,9.90
2019-02-20T12:46:49.921Z,9.90
2019-02-20T12:49:17.322Z,10.00
2019-02-20T12:51:44.542Z,10.30
2019-02-20T12:54:11.914Z,10.40
2019-02-20T12:56:44.065Z,10.50
2019-02-20T12:59:08.466Z,10.80
2019-02-20T13:01:35.722Z,10.80
2019-02-20T13:04:02.983Z,10.80
2019-02-20T13:06:30.310Z,10.50
2019-02-20T13:08:57.663Z,10.50
2019-02-20T13:11:24.898Z,10.50
2019-02-20T13:13:52.210Z,10.60
2019-02-20T13:16:19.505Z,10.70
2019-02-20T13:18:46.770Z,10.90
2019-02-20T13:21:14.069Z,10.90
2019-02-20T13:23:41.320Z,10.70
2019-02-20T13:26:08.541Z,10.50
2019-02-20T13:28:35.886Z,10.50
2019-02-20T13:31:03.482Z,10.60
2019-02-20T13:33:30.752Z,10.60
2019-02-20T13:35:58.085Z,10.60
2019-02-20T13:38:25.449Z,10.30
2019-02-20T13:40:52.810Z,10.20
2019-02-20T13:43:20.058Z,10.20
2019-02-20T13:45:47.619Z,10.10
2019-02-20T13:48:14.974Z,10.00
2019-02-20T13:50:42.314Z,9.90
2019-02-20T13:53:09.699Z,10.10
2019-02-20T13:55:36.945Z,10.10
2019-02-20T13:58:04.278Z,10.20
2019-02-20T14:00:32.518Z,10.20
2019-02-20T14:03:01.182Z,10.30
2019-02-20T14:05:28.706Z,10.50
2019-02-20T14:07:56.065Z,10.60
2019-02-20T14:10:23.522Z,10.40
2019-02-20T14:12:50.885Z,10.60
2019-02-20T14:15:18.142Z,10.30
2019-02-20T14:17:45.666Z,10.30
2019-02-20T14:20:13.106Z,10.30
2019-02-20T14:22:40.781Z,10.40
2019-02-20T14:25:08.137Z,10.40
2019-02-20T14:27:35.481Z,10.30
2019-02-20T14:30:03.323Z,10.40
2019-02-20T14:32:30.792Z,10.40
2019-02-20T14:34:58.124Z,10.50
2019-02-20T14:37:25.466Z,10.50
2019-02-20T14:39:53.115Z,10.60
2019-02-20T14:42:20.394Z,10.70
2019-02-20T14:44:47.906Z,10.70
2019-02-20T14:47:15.430Z,10.70
2019-02-20T14:49:42.679Z,10.90
2019-02-20T14:52:10.125Z,11.00
2019-02-20T14:54:37.352Z,11.00
2019-02-20T14:57:04.725Z,11.10
2019-02-20T14:59:32.471Z,11.30
2019-02-20T15:02:00.922Z,11.30
2019-02-20T15:04:28.447Z,11.40
2019-02-20T15:06:55.815Z,11.40
2019-02-20T15:09:23.202Z,11.30
2019-02-20T15:11:50.735Z,11.10
2019-02-20T15:14:18.128Z,11.10
2019-02-20T15:16:45.769Z,10.90
2019-02-20T15:19:13.134Z,10.60
2019-02-20T15:21:40.563Z,10.50
2019-02-20T15:24:07.918Z,10.20
2019-02-20T15:26:35.245Z,10.00
2019-02-20T15:29:02.498Z,10.10
2019-02-20T15:31:33.777Z,10.00
2019-02-20T15:33:59.069Z,10.10
2019-02-20T15:36:26.525Z,10.20
2019-02-20T15:38:53.874Z,10.20
2019-02-20T15:41:21.316Z,10.30
2019-02-20T15:43:48.555Z,10.20
2019-02-20T15:46:15.894Z,10.00
2019-02-20T15:48:43.253Z,9.90
2019-02-20T15:51:10.536Z,9.90
2019-02-20T15:53:38.275Z,9.90
2019-02-20T15:56:05.590Z,9.90
2019-02-20T15:58:32.959Z,9.90
2019-02-20T16:01:00.398Z,9.90
2019-02-20T16:03:28.723Z,9.80
2019-02-20T16:05:56.682Z,9.70
2019-02-20T16:08:23.910Z,9.40
2019-02-20T16:10:51.161Z,9.30
2019-02-20T16:13:18.938Z,9.20
2019-02-20T16:15:46.186Z,9.20
2019-02-20T16:18:13.599Z,9.30
2019-02-20T16:20:41.027Z,9.20
2019-02-20T16:23:08.331Z,9.10
2019-02-20T16:25:35.742Z,9.00
2019-02-20T16:28:03.077Z,8.90
2019-02-20T16:30:30.460Z,8.90
2019-02-20T16:32:57.929Z,8.90
2019-02-20T16:35:25.385Z,8.80
2019-02-20T16:37:52.635Z,8.70
2019-02-20T16:40:19.946Z,8.60
2019-02-20T16:42:47.277Z,8.50
2019-02-20T16:45:20.299Z,8.50
2019-02-20T16:47:47.805Z,8.50
2019-02-20T16:50:15.165Z,8.30
2019-02-20T16:52:42.602Z,8.30
2019-02-20T16:55:09.972Z,8.30
2019-02-20T16:57:37.310Z,8.20
2019-02-20T17:00:05.239Z,8.10
2019-02-20T17:02:32.587Z,8.00
2019-02-20T17:05:00.871Z,7.90
2019-02-20T17:07:28.735Z,7.90
2019-02-20T17:09:55.949Z,7.90
2019-02-20T17:12:23.459Z,7.90
2019-02-20T17:14:50.892Z,7.80
2019-02-20T17:17:18.183Z,7.60
2019-02-20T17:19:45.542Z,7.50
2019-02-20T17:22:12.970Z,7.20
2019-02-20T17:24:40.631Z,6.90
2019-02-20T17:27:07.890Z,6.80
2019-02-20T17:29:35.178Z,6.90
2019-02-20T17:32:02.522Z,7.10
2019-02-20T17:34:29.874Z,7.10
2019-02-20T17:36:57.239Z,7.10
2019-02-20T17:39:24.607Z,7.10
2019-02-20T17:41:51.871Z,6.90
2019-02-20T17:44:19.433Z,6.70
2019-02-20T17:46:46.861Z,6.80
2019-02-20T17:49:14.353Z,6.80
2019-02-20T17:51:41.718Z,6.70
2019-02-20T17:54:09.098Z,6.70
2019-02-20T17:56:36.350Z,6.70
2019-02-20T17:59:03.914Z,6.60
2019-02-20T18:01:31.338Z,6.60
2019-02-20T18:03:58.562Z,6.40
2019-02-20T18:06:25.835Z,6.50
2019-02-20T18:08:53.250Z,6.40
2019-02-20T18:11:20.638Z,6.20
2019-02-20T18:13:47.886Z,6.20
2019-02-20T18:16:15.149Z,6.10
2019-02-20T18:18:42.394Z,6.20
2019-02-20T18:21:09.814Z,6.00
2019-02-20T18:23:37.031Z,5.90
2019-02-20T18:26:04.480Z,5.80
2019-02-20T18:28:32.207Z,5.80
2019-02-20T18:30:59.522Z,5.70
2019-02-20T18:33:26.986Z,5.60
2019-02-20T18:35:54.287Z,5.60
2019-02-20T18:38:21.506Z,5.70
2019-02-20T18:40:48.840Z,5.60
2019-02-20T18:43:16.189Z,5.60
2019-02-20T18:45:43.530Z,5.60
2019-02-20T18:48:10.989Z,5.50
2019-02-20T18:50:38.261Z,5.50
2019-02-20T18:53:05.643Z,5.50
2019-02-20T18:55:33.118Z,5.50
2019-02-20T18:58:00.433Z,5.60
2019-02-20T19:00:27.923Z,5.60
2019-02-20T19:02:55.298Z,5.70
2019-02-20T19:05:22.653Z,5.70
2019-02-20T19:07:50.460Z,5.60
2019-02-20T19:10:21.720Z,5.70
2019-02-20T19:13:34.061Z,5.70
2019-02-20T19:16:39.039Z,5.70
2019-02-20T19:19:30.553Z,5.60
2019-02-20T19:22:35.584Z,5.60
2019-02-20T19:25:45.246Z,5.60
2019-02-20T19:28:30.987Z,5.60
2019-02-20T19:32:07.654Z,5.60
2019-02-20T19:35:13.156Z,5.50
2019-02-20T19:38:19.024Z,5.50
2019-02-20T19:41:22.216Z,5.60
2019-02-20T19:44:16.209Z,5.70
2019-02-20T19:47:12.271Z,5.70
2019-02-20T19:50:07.199Z,5.60
2019-02-20T19:53:06.343Z,5.70
2019-02-20T19:56:15.295Z,5.70
2019-02-20T19:59:15.022Z,5.70
2019-02-20T20:02:28.927Z,5.70
2019-02-20T20:05:13.459Z,5.50
2019-02-20T20:08:21.467Z,5.20
2019-02-20T20:11:03.007Z,5.30
2019-02-20T20:14:04.360Z,5.30
2019-02-20T20:17:22.990Z,5.30
2019-02-20T20:20:33.966Z,5.40
2019-02-20T20:23:41.695Z,5.40
2019-02-20T20:26:23.087Z,5.20
2019-02-20T20:29:34.227Z,5.10
2019-02-20T20:32:25.107Z,5.10
2019-02-20T20:35:37.441Z,5.10
2019-02-20T20:38:14.667Z,5.10
2019-02-20T20:41:29.837Z,5.20
2019-02-20T20:44:13.068Z,5.10
2019-02-20T20:47:10.006Z,5.20
2019-02-20T20:50:15.795Z,5.20
2019-02-20T20:53:17.302Z,5.20
2019-02-20T20:56:31.327Z,5.00
2019-02-20T20:59:16.930Z,4.90
2019-02-20T21:02:03.879Z,4.80
2019-02-20T21:05:08.042Z,4.80
2019-02-20T21:07:45.587Z,4.90
2019-02-20T21:10:55.324Z,4.60
2019-02-20T21:14:11.336Z,4.50
2019-02-20T21:17:09.759Z,4.40
2019-02-20T21:20:06.608Z,4.50
2019-02-20T21:23:07.106Z,4.40
2019-02-20T21:26:07.734Z,4.30
2019-02-20T21:29:28.435Z,4.40
2019-02-20T21:32:39.393Z,4.40
2019-02-20T21:36:00.661Z,4.40
2019-02-20T21:38:52.126Z,4.40
2019-02-20T21:42:09.471Z,4.30
2019-02-20T21:45:24.892Z,4.20
2019-02-20T21:48:35.298Z,3.90
2019-02-20T21:51:10.124Z,3.90
2019-02-20T21:54:16.131Z,3.90
2019-02-20T21:57:24.391Z,4.00
2019-02-20T22:00:27.880Z,4.10
2019-02-20T22:03:31.930Z,4.00
2019-02-20T22:06:07.875Z,3.90
2019-02-20T22:09:28.974Z,3.70
2019-02-20T22:12:50.522Z,3.60
2019-02-20T22:15:54.202Z,3.40
2019-02-20T22:19:01.538Z,3.30
2019-02-20T22:22:16.897Z,3.30
2019-02-20T22:25:44.078Z,3.20
2019-02-20T22:29:03.943Z,3.30
2019-02-20T22:32:16.618Z,3.40
2019-02-20T22:35:09.426Z,3.30
2019-02-20T22:38:22.981Z,3.20
2019-02-20T22:41:05.246Z,3.30
2019-02-20T22:43:59.714Z,3.30
2019-02-20T22:46:40.522Z,3.20
2019-02-20T22:49:41.026Z,3.20
2019-02-20T22:52:34.173Z,3.20
2019-02-20T22:55:55.623Z,3.20
2019-02-20T22:58:49.978Z,3.30
2019-02-20T23:01:53.557Z,3.20
2019-02-20T23:05:11.854Z,3.20
2019-02-20T23:08:36.696Z,3.30
2019-02-20T23:11:42.990Z,3.10
2019-02-20T23:14:22.022Z,3.10
2019-02-20T23:16:49.290Z,3.20
2019-02-20T23:19:16.534Z,3.40
2019-02-20T23:21:43.777Z,3.40
2019-02-20T23:24:11.018Z,3.50
2019-02-20T23:26:38.254Z,3.50
2019-02-20T23:29:05.531Z,3.60
2019-02-20T23:31:32.986Z,3.70
2019-02-20T23:34:00.313Z,3.60
2019-02-20T23:36:27.700Z,3.50
2019-02-20T23:38:54.938Z,3.50
2019-02-20T23:41:22.186Z,3.30
2019-02-20T23:43:49.543Z,3.40
2019-02-20T23:46:16.887Z,3.30
2019-02-20T23:48:44.119Z,3.40
2019-02-20T23:51:11.389Z,3.40
2019-02-20T23:53:38.754Z,3.30
2019-02-20T23:56:05.994Z,3.10
2019-02-20T23:58:33.357Z,3.10
